Time;durP1;ratioP1;P1;durP2;ratioP2;P2;SDS_P1;SDS_P2;PMS_P1;PMS_P2;Temp;Humidity;BMP_temperature;BMP_pressure;BME280_temperature;BME280_humidity;BME280_pressure;Samples;Min_cycle;Max_cycle;Signal;HPM_P1;HPM_P2
2023/05/30 00:02:26;;;;;;;7.28;2.88;;;;;;;;;;6189008;23;20404;-83
2023/05/30 00:04:55;;;;;;;11.82;3.40;;;;;;;;;;6163740;23;20055;-82
2023/05/30 00:07:23;;;;;;;8.73;3.15;;;18.10;91.20;;;;;;6190531;23;20009;-83
2023/05/30 00:09:50;;;;;;;7.63;2.80;;;;;;;;;;6164172;23;20001;-83
2023/05/30 00:12:18;;;;;;;11.18;3.97;;;;;;;;;;6190226;23;20005;-83
2023/05/30 00:14:47;;;;;;;7.15;2.97;;;;;;;;;;6191794;23;20017;-83
2023/05/30 00:17:16;;;;;;;8.35;2.55;;;;;;;;;;6164210;23;20126;-82
2023/05/30 00:19:42;;;;;;;8.15;2.90;;;;;;;;;;6192494;23;20009;-82
2023/05/30 00:22:08;;;;;;;6.47;2.70;;;;;;;;;;6164504;23;20071;-82
2023/05/30 00:24:35;;;;;;;8.15;2.80;;;;;;;;;;6165400;23;20486;-81
2023/05/30 00:27:02;;;;;;;8.55;3.22;;;;;;;;;;6191390;23;20016;-82
2023/05/30 00:29:28;;;;;;;10.20;2.90;;;;;;;;;;6192721;23;20024;-82
2023/05/30 00:31:55;;;;;;;9.20;3.00;;;;;;;;;;6165840;23;20036;-82
2023/05/30 00:34:21;;;;;;;6.82;3.00;;;;;;;;;;6165738;23;20001;-81
2023/05/30 00:36:47;;;;;;;7.47;2.42;;;;;;;;;;6191946;23;20009;-83
2023/05/30 00:39:15;;;;;;;7.32;3.03;;;;;;;;;;6192754;23;20021;-82
2023/05/30 00:41:41;;;;;;;10.25;3.13;;;;;;;;;;6141260;23;20021;-83
2023/05/30 00:44:08;;;;;;;6.65;2.88;;;;;;;;;;6192256;23;20001;-83
2023/05/30 00:46:34;;;;;;;8.30;3.00;;;;;;;;;;6166277;23;20016;-81
2023/05/30 00:49:01;;;;;;;10.32;3.25;;;;;;;;;;6165001;23;20001;-82
2023/05/30 00:51:29;;;;;;;10.95;3.05;;;18.00;90.70;;;;;;6165796;23;20001;-81
2023/05/30 00:53:56;;;;;;;7.65;3.10;;;;;;;;;;6190731;23;20001;-82
2023/05/30 00:56:26;;;;;;;7.53;2.92;;;;;;;;;;6192509;23;20004;-81
2023/05/30 00:59:14;;;;;;;5.15;2.78;;;17.80;90.80;;;;;;6165424;23;20008;-82
2023/05/30 01:01:43;;;;;;;7.05;2.72;;;;;;;;;;6191943;23;20032;-82
2023/05/30 01:04:10;;;;;;;8.88;2.90;;;;;;;;;;6156819;23;20009;-83
2023/05/30 01:06:37;;;;;;;6.97;2.92;;;;;;;;;;6186155;23;20008;-83
2023/05/30 01:09:05;;;;;;;5.93;2.75;;;17.80;90.80;;;;;;6211565;23;20053;-82
2023/05/30 01:11:58;;;;;;;5.28;2.70;;;17.80;90.80;;;;;;6184103;23;20241;-81
2023/05/30 01:14:24;;;;;;;5.93;2.65;;;;;;;;;;6185345;23;20040;-82
2023/05/30 01:17:14;;;;;;;4.85;2.58;;;17.60;91.10;;;;;;6170745;23;20001;-82
2023/05/30 01:19:58;;;;;;;6.57;3.17;;;17.50;91.20;;;;;;6195296;23;20024;-82
2023/05/30 01:22:51;;;;;;;5.25;2.63;;;17.50;91.10;;;;;;6190644;23;20056;-83
2023/05/30 01:25:27;;;;;;;7.50;2.45;;;;;;;;;;6118963;23;20087;-82
2023/05/30 01:28:28;;;;;;;7.15;3.03;;;17.60;90.90;;;;;;6194660;23;20016;-82
2023/05/30 01:30:57;;;;;;;5.95;2.60;;;17.60;90.90;;;;;;6143373;23;20013;-82
2023/05/30 01:33:24;;;;;;;7.43;3.28;;;;;;;;;;6168085;23;20024;-83
2023/05/30 01:35:52;;;;;;;7.65;2.70;;;;;;;;;;6165593;23;20432;-81
2023/05/30 01:38:18;;;;;;;8.05;2.67;;;;;;;;;;6196041;23;20108;-82
2023/05/30 01:40:51;;;;;;;7.18;3.08;;;17.40;90.70;;;;;;6197051;23;20012;-82
2023/05/30 01:43:28;;;;;;;8.18;2.80;;;17.30;91.00;;;;;;6202363;23;20013;-82
2023/05/30 01:45:55;;;;;;;5.57;2.50;;;;;;;;;;6208666;23;20004;-82
2023/05/30 01:48:51;;;;;;;7.93;3.10;;;17.30;90.90;;;;;;6191338;23;20020;-81
2023/05/30 01:51:24;;;;;;;9.48;3.05;;;17.30;90.90;;;;;;6191281;23;20337;-81
2023/05/30 01:53:58;;;;;;;8.13;2.78;;;17.20;90.90;;;;;;6192031;23;20004;-82
2023/05/30 01:56:26;;;;;;;11.70;2.90;;;;;;;;;;6191348;23;20024;-82
2023/05/30 01:58:52;;;;;;;6.40;2.58;;;;;;;;;;6193120;23;19997;-82
2023/05/30 02:01:23;;;;;;;5.97;2.83;;;17.20;91.10;;;;;;6191244;23;20001;-83
2023/05/30 02:03:49;;;;;;;;;;;17.20;91.10;;;;;;6189511;23;20067;-82
2023/05/30 02:06:15;;;;;;;9.95;3.50;;;;;;;;;;6191334;23;19915;-81
2023/05/30 02:08:42;;;;;;;9.90;3.00;;;;;;;;;;6190128;23;20005;-82
2023/05/30 02:11:08;;;;;;;8.48;3.08;;;;;;;;;;6191558;23;20025;-81
2023/05/30 02:13:35;;;;;;;9.05;2.92;;;;;;;;;;6191114;23;20016;-81
2023/05/30 02:16:01;;;;;;;9.20;2.92;;;;;;;;;;6191350;23;20005;-82
2023/05/30 02:18:28;;;;;;;7.07;2.85;;;;;;;;;;6192077;23;20005;-83
2023/05/30 02:20:55;;;;;;;12.20;3.15;;;;;;;;;;6189729;23;20043;-82
2023/05/30 02:23:21;;;;;;;6.10;2.55;;;;;;;;;;6189892;23;20092;-80
2023/05/30 02:25:50;;;;;;;7.03;2.97;;;;;;;;;;6166090;23;20351;-81
2023/05/30 02:28:17;;;;;;;8.90;2.75;;;;;;;;;;6190557;23;20436;-81
2023/05/30 02:30:45;;;;;;;5.78;2.65;;;;;;;;;;6192878;23;20444;-82
2023/05/30 02:33:11;;;;;;;8.10;3.05;;;;;;;;;;6191270;23;20001;-83
2023/05/30 02:35:38;;;;;;;6.80;2.55;;;16.80;91.00;;;;;;6192717;23;20005;-83
2023/05/30 02:38:05;;;;;;;7.90;2.90;;;;;;;;;;6170368;23;20017;-82
2023/05/30 02:40:31;;;;;;;9.82;3.00;;;;;;;;;;6190947;23;20012;-82
2023/05/30 02:42:58;;;;;;;7.32;3.00;;;;;;;;;;6192712;23;20017;-83
2023/05/30 02:45:25;;;;;;;8.65;3.05;;;;;;;;;;6191785;23;20075;-82
2023/05/30 02:47:52;;;;;;;6.93;2.80;;;;;;;;;;6192725;23;20092;-83
2023/05/30 02:50:18;;;;;;;7.00;2.88;;;;;;;;;;6192062;23;20001;-82
2023/05/30 02:52:45;;;;;;;10.88;2.60;;;;;;;;;;6192248;23;20074;-81
2023/05/30 02:55:15;;;;;;;6.45;2.53;;;16.60;91.20;;;;;;6193343;23;20056;-83
2023/05/30 02:57:42;;;;;;;6.57;2.80;;;;;;;;;;6191858;23;20005;-82
2023/05/30 03:00:13;;;;;;;8.38;2.90;;;;;;;;;;6192814;23;20013;-83
2023/05/30 03:02:39;;;;;;;8.77;2.90;;;;;;;;;;6194920;23;20012;-82
2023/05/30 03:05:06;;;;;;;8.95;2.97;;;;;;;;;;6195570;23;20036;-83
2023/05/30 03:07:32;;;;;;;6.53;2.67;;;;;;;;;;6195141;23;20009;-82
2023/05/30 03:10:00;;;;;;;6.57;2.72;;;;;;;;;;6194778;23;20070;-83
2023/05/30 03:12:28;;;;;;;8.82;3.00;;;16.40;91.30;;;;;;6196276;23;20070;-81
2023/05/30 03:14:56;;;;;;;6.55;2.60;;;16.40;91.50;;;;;;6193361;23;20029;-83
2023/05/30 03:17:26;;;;;;;10.75;3.40;;;;;;;;;;6193487;23;20009;-82
2023/05/30 03:19:53;;;;;;;11.57;2.85;;;;;;;;;;6193298;23;20013;-82
2023/05/30 03:22:22;;;;;;;8.57;2.75;;;;;;;;;;6191513;23;20013;-82
2023/05/30 03:24:48;;;;;;;6.65;2.50;;;;;;;;;;6167039;23;20016;-82
2023/05/30 03:27:15;;;;;;;11.18;2.95;;;;;;;;;;6167250;23;20013;-82
2023/05/30 03:29:41;;;;;;;6.18;2.65;;;;;;;;;;6194060;23;20012;-82
2023/05/30 03:32:09;;;;;;;8.30;2.85;;;16.20;91.40;;;;;;6192227;23;20001;-83
2023/05/30 03:34:38;;;;;;;10.13;3.08;;;;;;;;;;6193309;23;20039;-82
2023/05/30 03:37:06;;;;;;;6.72;2.90;;;;;;;;;;6195453;23;20009;-81
2023/05/30 03:39:33;;;;;;;6.38;2.83;;;;;;;;;;6193353;23;20079;-82
2023/05/30 03:42:02;;;;;;;7.75;2.88;;;16.10;91.20;;;;;;6193382;23;20041;-82
2023/05/30 03:44:28;;;;;;;6.93;2.42;;;;;;;;;;6194375;23;20032;-82
2023/05/30 03:46:55;;;;;;;8.20;2.70;;;;;;;;;;6195847;23;20067;-81
2023/05/30 03:49:25;;;;;;;6.97;2.50;;;;;;;;;;6199588;23;19997;-82
2023/05/30 03:51:51;;;;;;;7.93;2.30;;;;;;;;;;6206612;23;20001;-80
2023/05/30 03:54:19;;;;;;;6.53;2.58;;;;;;;;;;6211176;23;19997;-83
2023/05/30 03:57:00;;;;;;;6.68;2.58;;;;;;;;;;6207894;23;20009;-83
2023/05/30 09:16:58;;;;;;;7.18;2.83;;;21.30;75.20;;;;;;6186060;23;20021;-82
2023/05/30 09:19:40;;;;;;;7.60;2.65;;;21.30;75.90;;;;;;6190453;23;20009;-82
2023/05/30 18:00:49;;;;;;;5.45;1.88;;;23.10;58.90;;;;;;6194454;23;20025;-83
2023/05/30 18:13:24;;;;;;;6.07;1.98;;;;;;;;;;6208667;23;20027;-82
2023/05/30 18:15:50;;;;;;;6.15;2.30;;;;;;;;;;6224984;23;20092;-83
2023/05/30 18:18:16;;;;;;;5.05;2.00;;;22.60;58.80;;;;;;6195913;23;20019;-82
2023/05/30 18:20:42;;;;;;;7.78;2.25;;;22.60;59.30;;;;;;6203625;23;20005;-84
2023/05/30 18:23:09;;;;;;;9.75;2.20;;;22.50;59.40;;;;;;6206482;23;20004;-78
2023/05/30 18:25:35;;;;;;;7.10;2.47;;;22.40;59.60;;;;;;6199711;23;20047;-78
2023/05/30 18:28:03;;;;;;;6.53;2.38;;;22.30;59.60;;;;;;6202649;23;20031;-78
2023/05/30 18:30:29;;;;;;;5.78;2.30;;;22.30;60.10;;;;;;6228397;23;20001;-79
2023/05/30 18:32:54;;;;;;;6.35;2.42;;;22.20;60.00;;;;;;6199687;23;20498;-77
2023/05/30 18:35:20;;;;;;;6.55;2.55;;;22.20;60.30;;;;;;6231648;23;19992;-79
2023/05/30 18:37:49;;;;;;;12.35;2.60;;;22.10;60.60;;;;;;6226718;23;20127;-79
2023/05/30 18:40:15;;;;;;;5.57;2.30;;;22.10;60.80;;;;;;6227784;23;20463;-82
2023/05/30 18:42:42;;;;;;;8.13;2.70;;;22.00;61.20;;;;;;6189738;23;20004;-85
2023/05/30 18:45:09;;;;;;;8.15;2.38;;;22.00;61.50;;;;;;6204168;23;20056;-82
2023/05/30 18:47:35;;;;;;;9.55;2.45;;;22.00;61.50;;;;;;6201776;23;19989;-82
2023/05/30 18:50:02;;;;;;;6.05;2.30;;;22.00;61.20;;;;;;6203580;23;20016;-83
2023/05/30 18:52:27;;;;;;;6.43;2.85;;;21.90;61.90;;;;;;6204482;23;20024;-83
2023/05/30 18:54:53;;;;;;;5.63;2.53;;;21.90;62.30;;;;;;6202019;23;20446;-82
2023/05/30 18:57:19;;;;;;;6.05;2.20;;;21.80;62.30;;;;;;6198266;23;20039;-83
2023/05/30 18:59:44;;;;;;;10.50;2.22;;;21.80;62.60;;;;;;6202995;23;20011;-81
2023/05/30 19:02:10;;;;;;;9.95;2.53;;;21.60;62.70;;;;;;6232629;23;19989;-82
2023/05/30 19:04:36;;;;;;;6.60;1.98;;;21.50;63.20;;;;;;6230464;23;20015;-84
2023/05/30 19:07:04;;;;;;;7.05;2.47;;;21.50;63.20;;;;;;6231018;23;20003;-78
2023/05/30 19:09:31;;;;;;;6.25;2.08;;;21.50;63.30;;;;;;6209960;23;20083;-78
2023/05/30 19:11:58;;;;;;;5.53;2.38;;;21.50;63.80;;;;;;6202952;23;20052;-78
2023/05/30 19:14:24;;;;;;;7.07;2.40;;;21.40;63.70;;;;;;6231909;23;20022;-78
2023/05/30 19:16:50;;;;;;;4.95;2.10;;;21.40;64.70;;;;;;6234618;23;20005;-78
2023/05/30 19:19:16;;;;;;;6.57;2.50;;;21.30;63.90;;;;;;6206300;23;20440;-77
2023/05/30 19:21:42;;;;;;;14.02;5.40;;;21.30;64.40;;;;;;6208238;23;20007;-80
2023/05/30 19:24:07;;;;;;;7.88;3.40;;;21.20;64.70;;;;;;6201681;23;19989;-77
2023/05/30 19:26:33;;;;;;;7.65;2.30;;;21.20;64.70;;;;;;6199332;23;20564;-78
2023/05/30 19:28:59;;;;;;;7.30;2.78;;;21.20;65.20;;;;;;6231225;23;20043;-77
2023/05/30 19:31:24;;;;;;;8.15;2.60;;;21.20;65.20;;;;;;6204559;23;20011;-77
2023/05/30 19:33:50;;;;;;;6.40;2.55;;;21.20;65.40;;;;;;6231637;23;20004;-77
2023/05/30 19:36:17;;;;;;;9.40;2.50;;;21.00;65.30;;;;;;6200105;23;20068;-80
2023/05/30 19:38:42;;;;;;;5.53;2.60;;;21.00;65.70;;;;;;6205134;23;20008;-77
2023/05/30 19:41:08;;;;;;;4.85;2.17;;;20.90;66.30;;;;;;6207431;23;20261;-77
2023/05/30 19:43:35;;;;;;;7.85;2.60;;;20.90;66.40;;;;;;6204049;23;19996;-77
2023/05/30 19:46:05;;;;;;;6.22;2.42;;;20.80;66.60;;;;;;6206583;23;20019;-78
2023/05/30 19:48:31;;;;;;;;;;;20.70;67.00;;;;;;6207776;23;20127;-77
2023/05/30 19:50:56;;;;;;;8.02;2.47;;;20.70;67.40;;;;;;6201714;23;19896;-79
2023/05/30 19:53:26;;;;;;;5.57;2.20;;;20.60;67.30;;;;;;6229481;23;20025;-78
2023/05/30 19:55:54;;;;;;;7.75;2.50;;;20.60;67.60;;;;;;6207566;23;20064;-77
2023/05/30 19:58:20;;;;;;;6.78;2.17;;;20.50;67.70;;;;;;6227391;23;20097;-78
2023/05/30 20:00:46;;;;;;;9.90;2.95;;;20.50;68.10;;;;;;6226088;23;20003;-79
2023/05/30 20:03:12;;;;;;;6.57;2.28;;;20.50;68.20;;;;;;6199988;23;20013;-77
2023/05/30 20:05:40;;;;;;;6.90;2.42;;;20.50;68.50;;;;;;6198025;23;20005;-77
2023/05/30 20:08:06;;;;;;;8.73;2.58;;;20.30;68.30;;;;;;6198677;23;20011;-78
2023/05/30 20:10:32;;;;;;;7.15;2.95;;;;;;;;;;6198195;23;20004;-79
2023/05/30 20:12:58;;;;;;;7.22;2.58;;;20.30;68.70;;;;;;6187652;23;20036;-75
2023/05/30 20:15:23;;;;;;;9.38;4.07;;;20.30;69.40;;;;;;6186306;23;20008;-76
2023/05/30 20:17:57;;;;;;;5.70;2.63;;;20.20;69.30;;;;;;6193787;23;20063;-78
2023/05/30 20:20:23;;;;;;;8.10;2.90;;;20.20;69.70;;;;;;6201780;23;20012;-76
2023/05/30 20:22:49;;;;;;;9.32;2.40;;;20.20;69.90;;;;;;6193463;23;20036;-81
2023/05/30 20:25:15;;;;;;;6.88;2.30;;;;;;;;;;6197019;23;20013;-75
2023/05/30 20:27:44;;;;;;;7.85;2.85;;;20.20;70.00;;;;;;6196544;23;20028;-76
2023/05/30 20:30:26;;;;;;;10.38;3.00;;;20.10;70.10;;;;;;6196638;23;20016;-76
2023/05/30 20:33:01;;;;;;;7.65;2.72;;;20.20;70.10;;;;;;6198118;23;20039;-79
2023/05/30 20:35:31;;;;;;;6.50;2.40;;;20.10;70.10;;;;;;6203337;23;20024;-77
2023/05/30 20:38:03;;;;;;;6.75;2.40;;;20.10;70.40;;;;;;6199746;23;20009;-77
2023/05/30 20:40:29;;;;;;;6.15;2.58;;;;;;;;;;6200049;23;20013;-76
2023/05/30 20:43:03;;;;;;;5.68;2.63;;;20.00;70.90;;;;;;6200765;23;20028;-76
2023/05/30 20:46:03;;;;;;;6.80;2.47;;;19.90;70.80;;;;;;6175251;23;20017;-79
2023/05/30 20:48:41;;;;;;;9.60;2.60;;;20.00;71.10;;;;;;6202065;23;20005;-78
2023/05/30 20:51:10;;;;;;;8.43;2.10;;;19.90;71.20;;;;;;6177237;23;20019;-78
2023/05/30 20:53:36;;;;;;;7.13;2.65;;;;;;;;;;6197128;23;19997;-77
2023/05/30 20:56:30;;;;;;;8.57;2.65;;;19.80;71.40;;;;;;6200180;23;20003;-86
2023/05/30 20:59:15;;;;;;;9.18;2.42;;;19.70;72.20;;;;;;6196658;23;20096;-85
2023/05/30 21:01:54;;;;;;;5.82;2.40;;;19.50;72.20;;;;;;6200773;23;20008;-84
2023/05/30 21:04:27;;;;;;;8.02;2.55;;;19.50;72.50;;;;;;6201836;23;20021;-85
2023/05/30 21:06:56;;;;;;;7.45;2.45;;;19.50;72.50;;;;;;6205390;23;20085;-85
2023/05/30 21:09:41;;;;;;;5.63;2.33;;;19.50;72.80;;;;;;6201001;23;20013;-77
2023/05/30 21:12:21;;;;;;;7.65;2.63;;;19.50;72.80;;;;;;6203942;23;20013;-81
2023/05/30 21:15:17;;;;;;;9.93;2.20;;;19.50;73.20;;;;;;6175671;23;20009;-78
2023/05/30 21:18:00;;;;;;;7.10;2.65;;;19.40;73.20;;;;;;6218545;23;20483;-81
2023/05/30 21:20:58;;;;;;;9.30;2.70;;;19.40;73.50;;;;;;6198016;23;20008;-81
2023/05/30 21:23:29;;;;;;;8.77;2.88;;;19.30;74.20;;;;;;6214708;23;20001;-84
2023/05/30 21:25:55;;;;;;;7.60;2.55;;;19.30;73.90;;;;;;6190856;23;20080;-81
2023/05/30 21:28:21;;;;;;;6.43;2.25;;;19.30;74.50;;;;;;6192866;23;20009;-82
2023/05/30 21:30:47;;;;;;;10.18;2.08;;;19.20;74.20;;;;;;6198650;23;20004;-83
2023/05/30 21:33:16;;;;;;;7.47;2.13;;;19.20;74.40;;;;;;6194739;23;20012;-81
2023/05/30 21:35:42;;;;;;;11.32;2.25;;;19.20;74.90;;;;;;6222796;23;20522;-82
2023/05/30 21:38:11;;;;;;;7.50;2.50;;;19.10;74.90;;;;;;6194399;23;20435;-82
2023/05/30 21:40:42;;;;;;;9.73;2.75;;;;;;;;;;6194726;23;20497;-84
2023/05/30 21:43:07;;;;;;;7.13;2.40;;;19.10;75.00;;;;;;6228948;23;20007;-84
2023/05/30 21:45:33;;;;;;;8.60;2.80;;;;;;;;;;6228657;23;20009;-82
2023/05/30 21:47:59;;;;;;;7.57;2.40;;;19.10;75.20;;;;;;6198620;23;20040;-82
2023/05/30 21:50:25;;;;;;;5.57;2.40;;;19.00;75.60;;;;;;6201957;23;20015;-81
2023/05/30 21:52:50;;;;;;;8.82;2.85;;;19.00;76.10;;;;;;6202077;23;20000;-82
2023/05/30 21:55:16;;;;;;;10.75;3.25;;;19.00;76.10;;;;;;6197216;23;20020;-81
2023/05/30 21:57:42;;;;;;;7.03;2.45;;;18.90;76.20;;;;;;6197249;23;20036;-84
2023/05/30 22:00:09;;;;;;;4.47;2.05;;;18.80;75.70;;;;;;6225794;23;20000;-83
2023/05/30 22:02:35;;;;;;;8.27;2.33;;;18.90;76.10;;;;;;6222627;23;20320;-85
2023/05/30 22:05:01;;;;;;;8.40;2.63;;;18.90;76.00;;;;;;6232962;23;20007;-84
2023/05/30 22:07:27;;;;;;;6.55;2.47;;;18.80;76.20;;;;;;6207493;23;20088;-84
2023/05/30 22:09:52;;;;;;;7.47;2.53;;;18.70;76.40;;;;;;6229738;23;19996;-84
2023/05/30 22:12:18;;;;;;;8.98;2.83;;;18.70;76.70;;;;;;6231373;23;20004;-84
2023/05/30 22:14:43;;;;;;;6.82;2.47;;;18.60;76.70;;;;;;6231599;23;20001;-84
2023/05/30 22:17:09;;;;;;;9.32;2.50;;;18.70;76.60;;;;;;6229024;23;19988;-84
2023/05/30 22:19:35;;;;;;;5.30;2.38;;;18.60;76.30;;;;;;6229219;23;20008;-85
2023/05/30 22:22:00;;;;;;;7.97;2.42;;;18.50;76.60;;;;;;6231526;23;20005;-86
2023/05/30 22:24:26;;;;;;;8.93;3.00;;;18.50;77.00;;;;;;6228609;23;20351;-86
2023/05/30 22:26:52;;;;;;;6.75;2.60;;;18.60;76.80;;;;;;6226353;23;20000;-85
2023/05/30 22:29:17;;;;;;;7.32;2.50;;;18.50;76.40;;;;;;6197900;23;20064;-84
2023/05/30 22:31:43;;;;;;;8.50;2.90;;;18.50;76.90;;;;;;6199918;23;20014;-83
2023/05/30 22:34:09;;;;;;;8.80;2.88;;;18.50;77.00;;;;;;6200397;23;20431;-83
2023/05/30 22:36:35;;;;;;;6.57;2.35;;;18.50;76.90;;;;;;6203058;23;20344;-83
2023/05/30 22:39:01;;;;;;;10.05;2.53;;;18.50;76.90;;;;;;6201489;23;20004;-85
2023/05/30 22:41:26;;;;;;;6.40;2.45;;;18.50;77.00;;;;;;6201035;23;20020;-84
2023/05/30 22:43:53;;;;;;;6.03;2.13;;;18.40;76.90;;;;;;6205556;23;20009;-85
2023/05/30 22:46:19;;;;;;;7.05;2.35;;;18.40;76.90;;;;;;6230312;23;20000;-84
2023/05/30 22:48:45;;;;;;;6.63;2.42;;;18.40;76.70;;;;;;6222960;23;20027;-83
2023/05/30 22:51:10;;;;;;;9.75;2.67;;;18.30;76.80;;;;;;6217215;23;20014;-82
2023/05/30 22:53:36;;;;;;;5.47;2.40;;;18.40;76.80;;;;;;6223246;23;20044;-83
2023/05/30 22:56:02;;;;;;;6.93;2.40;;;18.30;76.80;;;;;;6221913;23;20020;-82
2023/05/30 22:58:27;;;;;;;10.18;4.03;;;18.40;76.60;;;;;;6194856;23;20009;-84
2023/05/30 23:00:53;;;;;;;10.98;2.60;;;18.30;76.80;;;;;;6200812;23;20020;-82
2023/05/30 23:03:18;;;;;;;6.85;2.72;;;18.20;76.70;;;;;;6226804;23;20004;-84
2023/05/30 23:05:44;;;;;;;5.22;1.95;;;18.20;76.70;;;;;;6201097;23;20048;-85
2023/05/30 23:08:10;;;;;;;6.15;2.30;;;18.10;77.00;;;;;;6205879;23;20031;-84
2023/05/30 23:10:36;;;;;;;6.57;2.30;;;18.20;76.70;;;;;;6207193;23;20019;-84
2023/05/30 23:13:01;;;;;;;8.35;2.00;;;18.10;76.90;;;;;;6205375;23;20017;-84
2023/05/30 23:15:27;;;;;;;8.15;2.50;;;18.10;76.80;;;;;;6228702;23;20009;-85
2023/05/30 23:17:53;;;;;;;7.13;2.40;;;18.10;76.20;;;;;;6207969;23;20019;-85
2023/05/30 23:20:18;;;;;;;8.52;2.85;;;18.00;76.60;;;;;;6232873;23;19996;-85
2023/05/30 23:22:44;;;;;;;5.68;2.45;;;18.10;76.00;;;;;;6204828;23;19990;-84
2023/05/30 23:25:09;;;;;;;10.32;2.00;;;18.10;76.40;;;;;;6235050;23;19996;-83
2023/05/30 23:27:35;;;;;;;7.00;2.33;;;17.90;76.10;;;;;;6234319;23;19988;-81
2023/05/30 23:30:02;;;;;;;8.25;2.33;;;17.90;76.60;;;;;;6206038;23;20040;-81
2023/05/30 23:32:28;;;;;;;5.15;2.10;;;17.90;76.80;;;;;;6206436;23;20008;-83
2023/05/30 23:34:53;;;;;;;6.53;2.17;;;17.90;76.60;;;;;;6204806;23;20338;-84
2023/05/30 23:37:19;;;;;;;6.65;2.33;;;17.90;76.50;;;;;;6199057;23;20001;-82
2023/05/30 23:39:45;;;;;;;7.47;2.53;;;17.80;75.90;;;;;;6203357;23;19993;-84
2023/05/30 23:42:10;;;;;;;4.43;2.28;;;17.90;76.40;;;;;;6203728;23;20001;-85
2023/05/30 23:44:36;;;;;;;5.13;2.42;;;17.70;76.20;;;;;;6201189;23;20054;-84
2023/05/30 23:47:02;;;;;;;8.25;2.47;;;17.70;76.70;;;;;;6205524;23;20015;-81
2023/05/30 23:49:28;;;;;;;7.72;2.65;;;17.80;76.60;;;;;;6211476;23;20016;-84
2023/05/30 23:51:53;;;;;;;7.18;2.30;;;17.80;76.50;;;;;;6202168;23;20064;-87
2023/05/30 23:54:19;;;;;;;7.15;2.38;;;17.70;76.60;;;;;;6207825;23;20000;-86
2023/05/30 23:56:45;;;;;;;6.65;2.38;;;17.60;76.70;;;;;;6207968;23;20058;-85
2023/05/30 23:59:10;;;;;;;5.78;2.13;;;17.60;76.70;;;;;;6204371;23;19993;-85
